sensor_id;sensor_type;location;lat;lon;timestamp;P1;durP1;ratioP1;P2;durP2;ratioP2
10295;SDS011;5193;51.032;6.356;2022-12-26T00:00:56;6.07;;;2.90;;
10295;SDS011;5193;51.032;6.356;2022-12-26T00:03:24;5.20;;;2.70;;
10295;SDS011;5193;51.032;6.356;2022-12-26T00:05:50;8.30;;;3.40;;
10295;SDS011;5193;51.032;6.356;2022-12-26T00:08:16;6.17;;;2.30;;
10295;SDS011;5193;51.032;6.356;2022-12-26T00:10:42;4.07;;;2.83;;
10295;SDS011;5193;51.032;6.356;2022-12-26T00:13:08;6.07;;;2.53;;
10295;SDS011;5193;51.032;6.356;2022-12-26T00:15:33;3.53;;;2.47;;
10295;SDS011;5193;51.032;6.356;2022-12-26T00:17:59;5.53;;;2.77;;
10295;SDS011;5193;51.032;6.356;2022-12-26T00:20:25;7.60;;;2.90;;
10295;SDS011;5193;51.032;6.356;2022-12-26T00:22:50;5.53;;;2.90;;
10295;SDS011;5193;51.032;6.356;2022-12-26T00:25:16;5.30;;;2.80;;
10295;SDS011;5193;51.032;6.356;2022-12-26T00:27:41;6.07;;;3.27;;
10295;SDS011;5193;51.032;6.356;2022-12-26T00:30:07;7.47;;;2.80;;
10295;SDS011;5193;51.032;6.356;2022-12-26T00:32:33;3.63;;;2.60;;
10295;SDS011;5193;51.032;6.356;2022-12-26T00:34:59;5.90;;;3.00;;
10295;SDS011;5193;51.032;6.356;2022-12-26T00:37:24;3.80;;;2.40;;
10295;SDS011;5193;51.032;6.356;2022-12-26T00:39:50;5.23;;;2.20;;
10295;SDS011;5193;51.032;6.356;2022-12-26T00:42:15;7.80;;;2.70;;
10295;SDS011;5193;51.032;6.356;2022-12-26T00:44:41;8.53;;;2.63;;
10295;SDS011;5193;51.032;6.356;2022-12-26T00:47:06;8.33;;;3.10;;
10295;SDS011;5193;51.032;6.356;2022-12-26T00:49:32;8.07;;;3.10;;
10295;SDS011;5193;51.032;6.356;2022-12-26T00:51:57;6.33;;;3.10;;
10295;SDS011;5193;51.032;6.356;2022-12-26T00:54:23;6.83;;;2.60;;
10295;SDS011;5193;51.032;6.356;2022-12-26T00:56:48;3.97;;;2.43;;
10295;SDS011;5193;51.032;6.356;2022-12-26T00:59:14;4.70;;;2.50;;
10295;SDS011;5193;51.032;6.356;2022-12-26T01:01:40;5.87;;;3.00;;
10295;SDS011;5193;51.032;6.356;2022-12-26T01:04:05;6.00;;;2.77;;
10295;SDS011;5193;51.032;6.356;2022-12-26T01:06:31;4.07;;;2.47;;
10295;SDS011;5193;51.032;6.356;2022-12-26T01:08:57;6.23;;;2.67;;
10295;SDS011;5193;51.032;6.356;2022-12-26T01:11:23;5.40;;;2.50;;
10295;SDS011;5193;51.032;6.356;2022-12-26T01:14:05;4.53;;;2.20;;
10295;SDS011;5193;51.032;6.356;2022-12-26T01:16:32;3.50;;;2.80;;
10295;SDS011;5193;51.032;6.356;2022-12-26T01:18:58;7.33;;;2.80;;
10295;SDS011;5193;51.032;6.356;2022-12-26T01:21:24;5.37;;;2.30;;
10295;SDS011;5193;51.032;6.356;2022-12-26T01:23:49;7.17;;;2.63;;
10295;SDS011;5193;51.032;6.356;2022-12-26T01:26:15;4.30;;;2.23;;
10295;SDS011;5193;51.032;6.356;2022-12-26T01:28:40;4.93;;;2.27;;
10295;SDS011;5193;51.032;6.356;2022-12-26T01:31:06;5.73;;;2.43;;
10295;SDS011;5193;51.032;6.356;2022-12-26T01:33:31;4.87;;;2.53;;
10295;SDS011;5193;51.032;6.356;2022-12-26T01:35:57;4.57;;;2.53;;
10295;SDS011;5193;51.032;6.356;2022-12-26T01:38:23;6.63;;;2.57;;
10295;SDS011;5193;51.032;6.356;2022-12-26T01:40:49;4.27;;;2.70;;
10295;SDS011;5193;51.032;6.356;2022-12-26T01:46:12;5.00;;;2.50;;
10295;SDS011;5193;51.032;6.356;2022-12-26T01:48:40;4.17;;;2.20;;
10295;SDS011;5193;51.032;6.356;2022-12-26T01:51:05;7.13;;;2.50;;
10295;SDS011;5193;51.032;6.356;2022-12-26T01:53:32;4.50;;;2.43;;
10295;SDS011;5193;51.032;6.356;2022-12-26T01:56:10;8.20;;;3.13;;
10295;SDS011;5193;51.032;6.356;2022-12-26T01:58:42;5.63;;;2.67;;
10295;SDS011;5193;51.032;6.356;2022-12-26T02:01:14;7.63;;;3.00;;
10295;SDS011;5193;51.032;6.356;2022-12-26T02:03:41;4.00;;;2.47;;
10295;SDS011;5193;51.032;6.356;2022-12-26T02:06:28;6.53;;;2.70;;
10295;SDS011;5193;51.032;6.356;2022-12-26T02:08:54;6.53;;;3.00;;
10295;SDS011;5193;51.032;6.356;2022-12-26T02:11:36;5.10;;;2.90;;
10295;SDS011;5193;51.032;6.356;2022-12-26T02:14:05;7.93;;;3.10;;
10295;SDS011;5193;51.032;6.356;2022-12-26T02:16:33;5.43;;;2.40;;
10295;SDS011;5193;51.032;6.356;2022-12-26T02:19:02;4.97;;;2.50;;
10295;SDS011;5193;51.032;6.356;2022-12-26T02:27:09;4.23;;;2.53;;
10295;SDS011;5193;51.032;6.356;2022-12-26T02:32:51;3.07;;;2.20;;
10295;SDS011;5193;51.032;6.356;2022-12-26T02:35:45;7.00;;;2.97;;
10295;SDS011;5193;51.032;6.356;2022-12-26T02:46:31;4.63;;;2.30;;
10295;SDS011;5193;51.032;6.356;2022-12-26T02:49:31;6.20;;;2.57;;
10295;SDS011;5193;51.032;6.356;2022-12-26T02:52:29;4.17;;;2.00;;
10295;SDS011;5193;51.032;6.356;2022-12-26T02:55:33;3.43;;;1.90;;
10295;SDS011;5193;51.032;6.356;2022-12-26T02:58:22;1.90;;;1.70;;
10295;SDS011;5193;51.032;6.356;2022-12-26T03:01:30;4.90;;;2.03;;
10295;SDS011;5193;51.032;6.356;2022-12-26T03:04:20;3.47;;;2.10;;
10295;SDS011;5193;51.032;6.356;2022-12-26T03:07:10;3.40;;;2.37;;
10295;SDS011;5193;51.032;6.356;2022-12-26T03:09:58;7.47;;;2.47;;
10295;SDS011;5193;51.032;6.356;2022-12-26T03:12:49;3.47;;;2.50;;
10295;SDS011;5193;51.032;6.356;2022-12-26T03:15:35;2.43;;;2.10;;
10295;SDS011;5193;51.032;6.356;2022-12-26T03:18:33;4.20;;;2.57;;
10295;SDS011;5193;51.032;6.356;2022-12-26T03:21:03;3.30;;;2.50;;
10295;SDS011;5193;51.032;6.356;2022-12-26T03:23:31;3.77;;;2.57;;
10295;SDS011;5193;51.032;6.356;2022-12-26T03:25:59;3.57;;;2.47;;
10295;SDS011;5193;51.032;6.356;2022-12-26T03:28:45;4.47;;;2.60;;
10295;SDS011;5193;51.032;6.356;2022-12-26T03:31:13;3.27;;;2.63;;
10295;SDS011;5193;51.032;6.356;2022-12-26T03:33:40;4.50;;;2.50;;
10295;SDS011;5193;51.032;6.356;2022-12-26T03:43:06;3.47;;;2.70;;
10295;SDS011;5193;51.032;6.356;2022-12-26T03:51:40;4.07;;;2.93;;
10295;SDS011;5193;51.032;6.356;2022-12-26T03:54:36;3.00;;;2.70;;
10295;SDS011;5193;51.032;6.356;2022-12-26T03:57:23;3.83;;;2.93;;
10295;SDS011;5193;51.032;6.356;2022-12-26T04:00:12;3.63;;;3.23;;
10295;SDS011;5193;51.032;6.356;2022-12-26T04:02:59;3.40;;;3.00;;
10295;SDS011;5193;51.032;6.356;2022-12-26T04:05:53;3.63;;;3.13;;
10295;SDS011;5193;51.032;6.356;2022-12-26T04:08:42;4.80;;;3.73;;
10295;SDS011;5193;51.032;6.356;2022-12-26T04:11:40;4.50;;;3.80;;
10295;SDS011;5193;51.032;6.356;2022-12-26T04:17:50;6.97;;;3.90;;
10295;SDS011;5193;51.032;6.356;2022-12-26T04:20:48;4.57;;;3.33;;
10295;SDS011;5193;51.032;6.356;2022-12-26T04:23:23;3.40;;;3.10;;
10295;SDS011;5193;51.032;6.356;2022-12-26T04:26:21;4.27;;;3.87;;
10295;SDS011;5193;51.032;6.356;2022-12-26T04:29:18;7.10;;;3.70;;
10295;SDS011;5193;51.032;6.356;2022-12-26T04:34:50;5.13;;;3.40;;
10295;SDS011;5193;51.032;6.356;2022-12-26T04:37:40;4.37;;;3.50;;
10295;SDS011;5193;51.032;6.356;2022-12-26T04:40:28;4.67;;;3.97;;
10295;SDS011;5193;51.032;6.356;2022-12-26T04:43:17;4.23;;;3.83;;
10295;SDS011;5193;51.032;6.356;2022-12-26T04:46:02;5.50;;;3.93;;
10295;SDS011;5193;51.032;6.356;2022-12-26T04:48:28;3.90;;;3.53;;
10295;SDS011;5193;51.032;6.356;2022-12-26T04:51:12;4.97;;;3.70;;
10295;SDS011;5193;51.032;6.356;2022-12-26T04:53:38;9.13;;;3.87;;
10295;SDS011;5193;51.032;6.356;2022-12-26T04:56:03;6.23;;;4.00;;
10295;SDS011;5193;51.032;6.356;2022-12-26T04:58:29;7.07;;;4.27;;
10295;SDS011;5193;51.032;6.356;2022-12-26T05:00:55;4.77;;;3.83;;
10295;SDS011;5193;51.032;6.356;2022-12-26T05:03:41;5.03;;;3.73;;
10295;SDS011;5193;51.032;6.356;2022-12-26T05:06:25;7.30;;;4.57;;
10295;SDS011;5193;51.032;6.356;2022-12-26T05:09:09;4.87;;;3.60;;
10295;SDS011;5193;51.032;6.356;2022-12-26T05:11:54;6.07;;;3.97;;
10295;SDS011;5193;51.032;6.356;2022-12-26T05:14:19;6.40;;;3.83;;
10295;SDS011;5193;51.032;6.356;2022-12-26T05:16:45;4.30;;;3.90;;
10295;SDS011;5193;51.032;6.356;2022-12-26T05:19:29;5.83;;;3.90;;
10295;SDS011;5193;51.032;6.356;2022-12-26T05:22:13;6.43;;;3.77;;
10295;SDS011;5193;51.032;6.356;2022-12-26T05:24:57;6.43;;;4.37;;
10295;SDS011;5193;51.032;6.356;2022-12-26T05:27:41;4.80;;;3.00;;
10295;SDS011;5193;51.032;6.356;2022-12-26T05:30:27;8.27;;;3.40;;
10295;SDS011;5193;51.032;6.356;2022-12-26T05:32:52;4.10;;;3.00;;
10295;SDS011;5193;51.032;6.356;2022-12-26T05:35:36;5.23;;;3.17;;
10295;SDS011;5193;51.032;6.356;2022-12-26T05:38:03;5.63;;;2.70;;
10295;SDS011;5193;51.032;6.356;2022-12-26T05:40:29;4.93;;;2.50;;
10295;SDS011;5193;51.032;6.356;2022-12-26T05:42:54;3.97;;;2.77;;
10295;SDS011;5193;51.032;6.356;2022-12-26T05:45:20;4.40;;;2.40;;
10295;SDS011;5193;51.032;6.356;2022-12-26T05:47:46;2.70;;;2.13;;
10295;SDS011;5193;51.032;6.356;2022-12-26T05:50:11;4.17;;;1.83;;
10295;SDS011;5193;51.032;6.356;2022-12-26T05:52:37;2.47;;;1.40;;
10295;SDS011;5193;51.032;6.356;2022-12-26T05:55:03;1.97;;;1.60;;
10295;SDS011;5193;51.032;6.356;2022-12-26T05:57:28;2.53;;;1.60;;
10295;SDS011;5193;51.032;6.356;2022-12-26T05:59:54;2.67;;;1.50;;
10295;SDS011;5193;51.032;6.356;2022-12-26T06:02:20;3.37;;;1.77;;
10295;SDS011;5193;51.032;6.356;2022-12-26T06:04:45;1.87;;;1.30;;
10295;SDS011;5193;51.032;6.356;2022-12-26T06:07:11;2.27;;;1.37;;
10295;SDS011;5193;51.032;6.356;2022-12-26T06:09:36;2.03;;;1.40;;
10295;SDS011;5193;51.032;6.356;2022-12-26T06:12:02;1.73;;;1.43;;
10295;SDS011;5193;51.032;6.356;2022-12-26T06:14:27;2.23;;;1.40;;
10295;SDS011;5193;51.032;6.356;2022-12-26T06:16:53;3.77;;;1.30;;
10295;SDS011;5193;51.032;6.356;2022-12-26T06:19:19;1.90;;;1.30;;
10295;SDS011;5193;51.032;6.356;2022-12-26T06:21:44;2.33;;;1.30;;
10295;SDS011;5193;51.032;6.356;2022-12-26T06:24:10;1.43;;;1.13;;
10295;SDS011;5193;51.032;6.356;2022-12-26T06:26:37;2.20;;;1.70;;
10295;SDS011;5193;51.032;6.356;2022-12-26T06:29:03;2.07;;;1.70;;
10295;SDS011;5193;51.032;6.356;2022-12-26T06:31:29;3.23;;;2.00;;
10295;SDS011;5193;51.032;6.356;2022-12-26T06:33:55;3.57;;;2.43;;
10295;SDS011;5193;51.032;6.356;2022-12-26T06:36:26;3.40;;;1.77;;
10295;SDS011;5193;51.032;6.356;2022-12-26T06:38:53;4.77;;;1.70;;
10295;SDS011;5193;51.032;6.356;2022-12-26T06:41:20;2.13;;;1.53;;
10295;SDS011;5193;51.032;6.356;2022-12-26T06:43:47;2.77;;;2.10;;
10295;SDS011;5193;51.032;6.356;2022-12-26T06:46:14;4.00;;;1.63;;
10295;SDS011;5193;51.032;6.356;2022-12-26T06:48:42;4.00;;;1.90;;
10295;SDS011;5193;51.032;6.356;2022-12-26T06:51:09;2.30;;;1.70;;
10295;SDS011;5193;51.032;6.356;2022-12-26T06:53:37;4.90;;;1.50;;
10295;SDS011;5193;51.032;6.356;2022-12-26T06:58:31;1.40;;;1.00;;
10295;SDS011;5193;51.032;6.356;2022-12-26T07:01:02;0.60;;;0.60;;
10295;SDS011;5193;51.032;6.356;2022-12-26T07:03:32;1.83;;;0.63;;
10295;SDS011;5193;51.032;6.356;2022-12-26T07:06:04;1.17;;;0.90;;
10295;SDS011;5193;51.032;6.356;2022-12-26T07:08:31;0.80;;;0.40;;
10295;SDS011;5193;51.032;6.356;2022-12-26T07:10:57;1.77;;;0.70;;
10295;SDS011;5193;51.032;6.356;2022-12-26T07:13:23;1.60;;;0.80;;
10295;SDS011;5193;51.032;6.356;2022-12-26T07:15:50;1.30;;;0.73;;
10295;SDS011;5193;51.032;6.356;2022-12-26T07:18:16;1.73;;;0.77;;
10295;SDS011;5193;51.032;6.356;2022-12-26T07:20:41;3.30;;;0.63;;
10295;SDS011;5193;51.032;6.356;2022-12-26T07:23:07;1.07;;;0.50;;
10295;SDS011;5193;51.032;6.356;2022-12-26T07:25:35;1.43;;;0.73;;
10295;SDS011;5193;51.032;6.356;2022-12-26T07:28:01;1.40;;;0.50;;
10295;SDS011;5193;51.032;6.356;2022-12-26T07:30:27;1.17;;;0.70;;
10295;SDS011;5193;51.032;6.356;2022-12-26T07:32:53;1.20;;;0.90;;
10295;SDS011;5193;51.032;6.356;2022-12-26T07:38:24;3.47;;;0.57;;
10295;SDS011;5193;51.032;6.356;2022-12-26T07:40:50;1.57;;;0.70;;
10295;SDS011;5193;51.032;6.356;2022-12-26T07:43:21;1.10;;;0.60;;
10295;SDS011;5193;51.032;6.356;2022-12-26T07:45:48;0.80;;;0.80;;
10295;SDS011;5193;51.032;6.356;2022-12-26T07:48:14;1.03;;;0.73;;
10295;SDS011;5193;51.032;6.356;2022-12-26T07:50:40;1.00;;;0.90;;
10295;SDS011;5193;51.032;6.356;2022-12-26T07:53:05;1.60;;;0.77;;
10295;SDS011;5193;51.032;6.356;2022-12-26T07:55:31;2.17;;;0.70;;
10295;SDS011;5193;51.032;6.356;2022-12-26T07:57:57;1.53;;;1.00;;
10295;SDS011;5193;51.032;6.356;2022-12-26T08:00:22;1.30;;;0.90;;
10295;SDS011;5193;51.032;6.356;2022-12-26T08:02:48;0.97;;;0.60;;
10295;SDS011;5193;51.032;6.356;2022-12-26T08:05:15;2.97;;;0.97;;
10295;SDS011;5193;51.032;6.356;2022-12-26T08:07:41;1.13;;;0.70;;
10295;SDS011;5193;51.032;6.356;2022-12-26T08:10:10;1.10;;;0.83;;
10295;SDS011;5193;51.032;6.356;2022-12-26T08:12:35;1.00;;;0.80;;
10295;SDS011;5193;51.032;6.356;2022-12-26T08:15:01;1.90;;;1.07;;
10295;SDS011;5193;51.032;6.356;2022-12-26T08:17:27;1.83;;;0.90;;
10295;SDS011;5193;51.032;6.356;2022-12-26T08:19:55;3.80;;;1.10;;
10295;SDS011;5193;51.032;6.356;2022-12-26T08:22:21;2.33;;;1.20;;
10295;SDS011;5193;51.032;6.356;2022-12-26T08:24:46;2.03;;;1.23;;
10295;SDS011;5193;51.032;6.356;2022-12-26T08:27:12;2.30;;;1.40;;
10295;SDS011;5193;51.032;6.356;2022-12-26T08:29:37;3.07;;;1.00;;
10295;SDS011;5193;51.032;6.356;2022-12-26T08:32:03;1.50;;;1.10;;
10295;SDS011;5193;51.032;6.356;2022-12-26T08:34:32;1.70;;;0.80;;
10295;SDS011;5193;51.032;6.356;2022-12-26T08:36:59;3.93;;;0.87;;
10295;SDS011;5193;51.032;6.356;2022-12-26T08:39:24;1.47;;;1.10;;
10295;SDS011;5193;51.032;6.356;2022-12-26T08:41:50;1.60;;;0.80;;
10295;SDS011;5193;51.032;6.356;2022-12-26T08:44:16;2.43;;;0.90;;
10295;SDS011;5193;51.032;6.356;2022-12-26T08:46:41;2.23;;;1.07;;
10295;SDS011;5193;51.032;6.356;2022-12-26T08:49:07;3.37;;;1.07;;
10295;SDS011;5193;51.032;6.356;2022-12-26T08:51:33;1.77;;;1.10;;
10295;SDS011;5193;51.032;6.356;2022-12-26T08:53:58;6.03;;;1.30;;
10295;SDS011;5193;51.032;6.356;2022-12-26T08:56:25;1.57;;;1.00;;
10295;SDS011;5193;51.032;6.356;2022-12-26T08:58:51;1.37;;;1.00;;
10295;SDS011;5193;51.032;6.356;2022-12-26T09:01:21;1.73;;;1.00;;
10295;SDS011;5193;51.032;6.356;2022-12-26T09:03:53;2.13;;;1.00;;
10295;SDS011;5193;51.032;6.356;2022-12-26T09:06:31;4.73;;;1.30;;
10295;SDS011;5193;51.032;6.356;2022-12-26T09:08:58;2.70;;;1.00;;
10295;SDS011;5193;51.032;6.356;2022-12-26T09:11:24;1.97;;;0.90;;
10295;SDS011;5193;51.032;6.356;2022-12-26T09:13:53;2.50;;;1.13;;
10295;SDS011;5193;51.032;6.356;2022-12-26T09:16:22;1.87;;;1.13;;
10295;SDS011;5193;51.032;6.356;2022-12-26T09:18:53;2.90;;;1.20;;
10295;SDS011;5193;51.032;6.356;2022-12-26T09:21:21;1.63;;;1.20;;
10295;SDS011;5193;51.032;6.356;2022-12-26T09:23:47;4.13;;;0.90;;
10295;SDS011;5193;51.032;6.356;2022-12-26T09:26:14;2.87;;;1.37;;
10295;SDS011;5193;51.032;6.356;2022-12-26T09:28:41;2.67;;;1.00;;
10295;SDS011;5193;51.032;6.356;2022-12-26T09:31:09;3.03;;;1.33;;
10295;SDS011;5193;51.032;6.356;2022-12-26T09:33:37;2.53;;;1.07;;
10295;SDS011;5193;51.032;6.356;2022-12-26T09:36:04;1.30;;;1.00;;
10295;SDS011;5193;51.032;6.356;2022-12-26T09:38:31;1.83;;;1.00;;
10295;SDS011;5193;51.032;6.356;2022-12-26T09:49:02;0.93;;;0.53;;
10295;SDS011;5193;51.032;6.356;2022-12-26T09:51:38;3.20;;;1.23;;
10295;SDS011;5193;51.032;6.356;2022-12-26T09:54:08;2.73;;;1.00;;
10295;SDS011;5193;51.032;6.356;2022-12-26T09:56:57;2.17;;;0.90;;
10295;SDS011;5193;51.032;6.356;2022-12-26T09:59:24;1.20;;;0.80;;
10295;SDS011;5193;51.032;6.356;2022-12-26T10:01:51;3.00;;;1.00;;
10295;SDS011;5193;51.032;6.356;2022-12-26T10:04:22;1.63;;;0.80;;
10295;SDS011;5193;51.032;6.356;2022-12-26T10:07:38;2.83;;;0.90;;
10295;SDS011;5193;51.032;6.356;2022-12-26T10:12:27;2.13;;;1.10;;
10295;SDS011;5193;51.032;6.356;2022-12-26T10:15:08;1.43;;;0.90;;
10295;SDS011;5193;51.032;6.356;2022-12-26T10:17:49;3.33;;;1.20;;
10295;SDS011;5193;51.032;6.356;2022-12-26T10:20:45;3.47;;;0.90;;
10295;SDS011;5193;51.032;6.356;2022-12-26T10:23:21;4.33;;;1.00;;
10295;SDS011;5193;51.032;6.356;2022-12-26T10:26:08;2.40;;;1.00;;
10295;SDS011;5193;51.032;6.356;2022-12-26T10:28:46;3.87;;;0.70;;
10295;SDS011;5193;51.032;6.356;2022-12-26T10:31:23;2.50;;;0.83;;
10295;SDS011;5193;51.032;6.356;2022-12-26T10:33:56;2.80;;;0.90;;
10295;SDS011;5193;51.032;6.356;2022-12-26T10:36:49;1.60;;;0.80;;
10295;SDS011;5193;51.032;6.356;2022-12-26T10:39:23;0.63;;;0.53;;
10295;SDS011;5193;51.032;6.356;2022-12-26T10:41:55;2.70;;;1.10;;
10295;SDS011;5193;51.032;6.356;2022-12-26T10:44:25;1.43;;;0.50;;
10295;SDS011;5193;51.032;6.356;2022-12-26T10:49:35;2.83;;;0.80;;
10295;SDS011;5193;51.032;6.356;2022-12-26T10:52:01;1.67;;;1.20;;
10295;SDS011;5193;51.032;6.356;2022-12-26T10:54:28;2.33;;;0.90;;
10295;SDS011;5193;51.032;6.356;2022-12-26T10:56:54;2.87;;;0.60;;
10295;SDS011;5193;51.032;6.356;2022-12-26T10:59:22;5.53;;;1.00;;
10295;SDS011;5193;51.032;6.356;2022-12-26T11:02:23;5.80;;;0.87;;
10295;SDS011;5193;51.032;6.356;2022-12-26T11:04:57;4.03;;;1.03;;
10295;SDS011;5193;51.032;6.356;2022-12-26T11:07:23;3.60;;;1.03;;
10295;SDS011;5193;51.032;6.356;2022-12-26T11:09:51;4.73;;;1.50;;
10295;SDS011;5193;51.032;6.356;2022-12-26T11:12:20;3.33;;;1.00;;
10295;SDS011;5193;51.032;6.356;2022-12-26T11:14:58;2.40;;;1.37;;
10295;SDS011;5193;51.032;6.356;2022-12-26T11:17:28;3.53;;;1.30;;
10295;SDS011;5193;51.032;6.356;2022-12-26T11:20:10;1.43;;;1.00;;
10295;SDS011;5193;51.032;6.356;2022-12-26T11:22:39;4.60;;;1.10;;
10295;SDS011;5193;51.032;6.356;2022-12-26T11:27:34;4.07;;;1.33;;
10295;SDS011;5193;51.032;6.356;2022-12-26T11:32:39;4.67;;;1.00;;
10295;SDS011;5193;51.032;6.356;2022-12-26T11:35:06;2.63;;;0.90;;
10295;SDS011;5193;51.032;6.356;2022-12-26T11:37:41;1.60;;;0.83;;
10295;SDS011;5193;51.032;6.356;2022-12-26T11:40:15;8.83;;;0.90;;
10295;SDS011;5193;51.032;6.356;2022-12-26T11:42:49;4.83;;;0.90;;
10295;SDS011;5193;51.032;6.356;2022-12-26T11:45:20;1.80;;;0.80;;
10295;SDS011;5193;51.032;6.356;2022-12-26T11:47:47;2.40;;;1.10;;
10295;SDS011;5193;51.032;6.356;2022-12-26T11:50:14;3.37;;;1.07;;
10295;SDS011;5193;51.032;6.356;2022-12-26T12:00:34;1.07;;;0.60;;
10295;SDS011;5193;51.032;6.356;2022-12-26T12:08:44;1.83;;;0.90;;
10295;SDS011;5193;51.032;6.356;2022-12-26T12:14:21;3.47;;;0.97;;
10295;SDS011;5193;51.032;6.356;2022-12-26T12:17:13;4.47;;;0.90;;
10295;SDS011;5193;51.032;6.356;2022-12-26T12:22:45;1.50;;;1.03;;
10295;SDS011;5193;51.032;6.356;2022-12-26T12:34:49;2.90;;;1.10;;
10295;SDS011;5193;51.032;6.356;2022-12-26T12:37:30;3.17;;;1.17;;
10295;SDS011;5193;51.032;6.356;2022-12-26T12:48:41;0.80;;;0.70;;
10295;SDS011;5193;51.032;6.356;2022-12-26T12:54:40;1.40;;;1.00;;
10295;SDS011;5193;51.032;6.356;2022-12-26T12:57:19;5.30;;;1.40;;
10295;SDS011;5193;51.032;6.356;2022-12-26T13:02:39;4.73;;;1.20;;
10295;SDS011;5193;51.032;6.356;2022-12-26T13:08:15;3.00;;;1.10;;
10295;SDS011;5193;51.032;6.356;2022-12-26T13:14:18;3.03;;;1.07;;
10295;SDS011;5193;51.032;6.356;2022-12-26T13:16:49;1.73;;;1.10;;
10295;SDS011;5193;51.032;6.356;2022-12-26T13:19:38;4.23;;;1.20;;
10295;SDS011;5193;51.032;6.356;2022-12-26T13:22:24;7.13;;;1.30;;
10295;SDS011;5193;51.032;6.356;2022-12-26T13:24:55;2.97;;;1.07;;
10295;SDS011;5193;51.032;6.356;2022-12-26T13:27:28;4.50;;;1.50;;
10295;SDS011;5193;51.032;6.356;2022-12-26T13:29:56;5.27;;;1.80;;
10295;SDS011;5193;51.032;6.356;2022-12-26T13:32:28;4.43;;;1.80;;
10295;SDS011;5193;51.032;6.356;2022-12-26T13:34:56;5.57;;;2.50;;
10295;SDS011;5193;51.032;6.356;2022-12-26T13:42:50;6.73;;;2.80;;
10295;SDS011;5193;51.032;6.356;2022-12-26T13:55:59;4.37;;;2.00;;
10295;SDS011;5193;51.032;6.356;2022-12-26T14:06:49;4.87;;;1.77;;
10295;SDS011;5193;51.032;6.356;2022-12-26T14:09:37;5.10;;;1.63;;
10295;SDS011;5193;51.032;6.356;2022-12-26T14:17:46;5.67;;;2.13;;
10295;SDS011;5193;51.032;6.356;2022-12-26T14:20:25;3.63;;;2.00;;
10295;SDS011;5193;51.032;6.356;2022-12-26T14:23:16;7.57;;;2.20;;
10295;SDS011;5193;51.032;6.356;2022-12-26T14:26:03;6.40;;;2.10;;
10295;SDS011;5193;51.032;6.356;2022-12-26T14:28:49;6.30;;;2.30;;
10295;SDS011;5193;51.032;6.356;2022-12-26T14:31:33;2.77;;;1.93;;
10295;SDS011;5193;51.032;6.356;2022-12-26T14:34:13;9.07;;;2.67;;
10295;SDS011;5193;51.032;6.356;2022-12-26T14:37:04;3.83;;;3.17;;
10295;SDS011;5193;51.032;6.356;2022-12-26T14:42:28;6.30;;;2.40;;
10295;SDS011;5193;51.032;6.356;2022-12-26T14:47:54;7.83;;;2.30;;
10295;SDS011;5193;51.032;6.356;2022-12-26T14:50:40;5.67;;;2.30;;
10295;SDS011;5193;51.032;6.356;2022-12-26T15:17:13;4.87;;;2.00;;
10295;SDS011;5193;51.032;6.356;2022-12-26T15:26:03;4.90;;;1.90;;
10295;SDS011;5193;51.032;6.356;2022-12-26T15:28:39;10.10;;;2.47;;
10295;SDS011;5193;51.032;6.356;2022-12-26T15:33:50;7.57;;;2.57;;
10295;SDS011;5193;51.032;6.356;2022-12-26T15:44:46;8.60;;;2.23;;
10295;SDS011;5193;51.032;6.356;2022-12-26T15:47:27;5.07;;;3.00;;
10295;SDS011;5193;51.032;6.356;2022-12-26T15:50:14;6.10;;;2.50;;
10295;SDS011;5193;51.032;6.356;2022-12-26T15:52:57;7.47;;;2.90;;
10295;SDS011;5193;51.032;6.356;2022-12-26T15:55:52;6.93;;;3.10;;
10295;SDS011;5193;51.032;6.356;2022-12-26T16:00:57;10.37;;;3.17;;
10295;SDS011;5193;51.032;6.356;2022-12-26T16:11:47;6.47;;;2.90;;
10295;SDS011;5193;51.032;6.356;2022-12-26T16:14:23;8.07;;;3.20;;
10295;SDS011;5193;51.032;6.356;2022-12-26T16:16:49;7.03;;;3.33;;
10295;SDS011;5193;51.032;6.356;2022-12-26T16:19:22;6.03;;;2.93;;
10295;SDS011;5193;51.032;6.356;2022-12-26T16:21:53;11.70;;;3.53;;
10295;SDS011;5193;51.032;6.356;2022-12-26T16:24:41;5.37;;;3.30;;
10295;SDS011;5193;51.032;6.356;2022-12-26T16:27:11;4.77;;;3.00;;
10295;SDS011;5193;51.032;6.356;2022-12-26T16:29:51;5.83;;;3.13;;
10295;SDS011;5193;51.032;6.356;2022-12-26T16:32:24;5.00;;;2.97;;
10295;SDS011;5193;51.032;6.356;2022-12-26T16:34:56;6.60;;;2.77;;
10295;SDS011;5193;51.032;6.356;2022-12-26T16:37:23;8.03;;;3.20;;
10295;SDS011;5193;51.032;6.356;2022-12-26T16:42:58;6.40;;;2.77;;
10295;SDS011;5193;51.032;6.356;2022-12-26T16:45:30;5.40;;;2.57;;
10295;SDS011;5193;51.032;6.356;2022-12-26T16:47:58;11.67;;;2.30;;
10295;SDS011;5193;51.032;6.356;2022-12-26T16:50:28;5.70;;;2.33;;
10295;SDS011;5193;51.032;6.356;2022-12-26T16:53:00;6.57;;;2.70;;
10295;SDS011;5193;51.032;6.356;2022-12-26T16:57:55;6.90;;;2.43;;
10295;SDS011;5193;51.032;6.356;2022-12-26T17:00:23;6.63;;;2.30;;
10295;SDS011;5193;51.032;6.356;2022-12-26T17:02:51;5.37;;;2.60;;
10295;SDS011;5193;51.032;6.356;2022-12-26T17:05:29;7.73;;;2.17;;
10295;SDS011;5193;51.032;6.356;2022-12-26T17:07:58;7.57;;;3.07;;
10295;SDS011;5193;51.032;6.356;2022-12-26T17:10:26;9.57;;;3.10;;
10295;SDS011;5193;51.032;6.356;2022-12-26T17:12:55;4.77;;;2.40;;
10295;SDS011;5193;51.032;6.356;2022-12-26T17:15:27;6.80;;;2.43;;
10295;SDS011;5193;51.032;6.356;2022-12-26T17:17:56;7.00;;;2.43;;
10295;SDS011;5193;51.032;6.356;2022-12-26T17:22:50;4.37;;;2.27;;
10295;SDS011;5193;51.032;6.356;2022-12-26T17:25:26;6.73;;;2.13;;
10295;SDS011;5193;51.032;6.356;2022-12-26T17:30:32;6.47;;;1.90;;
10295;SDS011;5193;51.032;6.356;2022-12-26T17:33:25;6.83;;;1.80;;
10295;SDS011;5193;51.032;6.356;2022-12-26T17:35:51;4.17;;;1.70;;
10295;SDS011;5193;51.032;6.356;2022-12-26T17:38:22;6.23;;;2.00;;
10295;SDS011;5193;51.032;6.356;2022-12-26T17:40:54;4.37;;;1.67;;
10295;SDS011;5193;51.032;6.356;2022-12-26T17:43:28;5.63;;;2.00;;
10295;SDS011;5193;51.032;6.356;2022-12-26T17:45:55;8.47;;;2.57;;
10295;SDS011;5193;51.032;6.356;2022-12-26T17:48:21;5.07;;;2.20;;
10295;SDS011;5193;51.032;6.356;2022-12-26T17:50:49;4.80;;;2.27;;
10295;SDS011;5193;51.032;6.356;2022-12-26T17:53:27;6.70;;;2.20;;
10295;SDS011;5193;51.032;6.356;2022-12-26T17:55:56;7.20;;;2.70;;
10295;SDS011;5193;51.032;6.356;2022-12-26T17:58:27;6.70;;;2.17;;
10295;SDS011;5193;51.032;6.356;2022-12-26T18:00:53;8.43;;;2.50;;
10295;SDS011;5193;51.032;6.356;2022-12-26T18:03:19;12.73;;;2.83;;
10295;SDS011;5193;51.032;6.356;2022-12-26T18:05:45;7.67;;;2.40;;
10295;SDS011;5193;51.032;6.356;2022-12-26T18:08:18;4.53;;;2.07;;
10295;SDS011;5193;51.032;6.356;2022-12-26T18:10:54;8.87;;;2.57;;
10295;SDS011;5193;51.032;6.356;2022-12-26T18:13:19;4.23;;;1.90;;
10295;SDS011;5193;51.032;6.356;2022-12-26T18:15:45;3.60;;;2.10;;
10295;SDS011;5193;51.032;6.356;2022-12-26T18:20:55;6.73;;;2.00;;
10295;SDS011;5193;51.032;6.356;2022-12-26T18:23:21;4.50;;;1.80;;
10295;SDS011;5193;51.032;6.356;2022-12-26T18:25:47;6.23;;;1.80;;
10295;SDS011;5193;51.032;6.356;2022-12-26T18:28:14;6.10;;;1.90;;
10295;SDS011;5193;51.032;6.356;2022-12-26T18:30:40;6.60;;;2.40;;
10295;SDS011;5193;51.032;6.356;2022-12-26T18:33:07;6.97;;;1.93;;
10295;SDS011;5193;51.032;6.356;2022-12-26T18:35:35;7.93;;;2.53;;
10295;SDS011;5193;51.032;6.356;2022-12-26T18:38:02;8.40;;;2.10;;
10295;SDS011;5193;51.032;6.356;2022-12-26T18:40:32;10.83;;;2.47;;
10295;SDS011;5193;51.032;6.356;2022-12-26T18:43:00;10.37;;;2.43;;
10295;SDS011;5193;51.032;6.356;2022-12-26T18:45:27;8.20;;;2.37;;
10295;SDS011;5193;51.032;6.356;2022-12-26T18:47:53;4.47;;;2.00;;
10295;SDS011;5193;51.032;6.356;2022-12-26T18:50:19;6.50;;;2.20;;
10295;SDS011;5193;51.032;6.356;2022-12-26T18:52:45;9.20;;;2.37;;
10295;SDS011;5193;51.032;6.356;2022-12-26T18:55:11;8.07;;;2.23;;
10295;SDS011;5193;51.032;6.356;2022-12-26T18:57:36;7.07;;;2.33;;
10295;SDS011;5193;51.032;6.356;2022-12-26T19:00:03;7.03;;;2.10;;
10295;SDS011;5193;51.032;6.356;2022-12-26T19:02:29;9.37;;;2.33;;
10295;SDS011;5193;51.032;6.356;2022-12-26T19:04:54;5.53;;;2.27;;